Time,TemperatureF,DewpointF,PressureIn,WindDirection,WindDirectionDegrees,WindSpeedMPH,WindSpeedGustMPH,Humidity,HourlyPrecipIn,Conditions,Clouds,dailyrainin,SoftwareType,DateUTC
2013-01-18 00:07:00,25.8,15.0,30.11,SE,125,0.0,1.0,63,0.00,,,0.00,weatherlink.com 1.10,2013-01-18 05:07:00,
2013-01-18 00:22:00,25.8,15.0,30.09,ENE,66,0.0,3.0,63,0.00,,,0.00,weatherlink.com 1.10,2013-01-18 05:22:00,
2013-01-18 00:38:00,25.6,14.0,30.08,East,85,0.0,2.0,61,0.00,,,0.00,weatherlink.com 1.10,2013-01-18 05:38:00,
2013-01-18 00:53:00,25.4,14.0,30.07,East,93,0.0,1.0,62,0.00,,,0.00,weatherlink.com 1.10,2013-01-18 05:53:00,
2013-01-18 01:08:00,25.3,13.0,30.08,ENE,77,0.0,2.0,61,0.00,,,0.00,weatherlink.com 1.10,2013-01-18 06:08:00,
2013-01-18 01:23:00,25.2,14.0,30.08,ENE,63,0.0,2.0,62,0.00,,,0.00,weatherlink.com 1.10,2013-01-18 06:23:00,
2013-01-18 01:38:00,25.0,14.0,30.11,WNW,290,0.0,2.0,62,0.00,,,0.00,weatherlink.com 1.10,2013-01-18 06:38:00,
2013-01-18 01:53:00,24.8,13.0,30.11,ENE,63,0.0,2.0,62,0.00,,,0.00,weatherlink.com 1.10,2013-01-18 06:53:00,
2013-01-18 02:08:00,24.5,13.0,30.13,West,262,0.0,3.0,61,0.00,,,0.00,weatherlink.com 1.10,2013-01-18 07:08:00,
2013-01-18 02:23:00,24.3,12.0,30.13,East,96,0.0,3.0,60,0.00,,,0.00,weatherlink.com 1.10,2013-01-18 07:23:00,
2013-01-18 02:38:00,23.9,12.0,30.14,WNW,291,0.0,4.0,60,0.00,,,0.00,weatherlink.com 1.10,2013-01-18 07:38:00,
2013-01-18 02:53:00,23.8,12.0,30.12,ENE,72,1.0,2.0,62,0.00,,,0.00,weatherlink.com 1.10,2013-01-18 07:53:00,
2013-01-18 03:08:00,23.3,12.0,30.13,WSW,245,0.0,5.0,62,0.00,,,0.00,weatherlink.com 1.10,2013-01-18 08:08:00,
2013-01-18 03:23:00,22.7,12.0,30.14,East,86,0.0,3.0,64,0.00,,,0.00,weatherlink.com 1.10,2013-01-18 08:23:00,
2013-01-18 03:38:00,22.7,13.0,30.14,ESE,105,0.0,2.0,65,0.00,,,0.00,weatherlink.com 1.10,2013-01-18 08:38:00,
2013-01-18 03:53:00,22.6,12.0,30.16,ENE,75,2.0,4.0,65,0.00,,,0.00,weatherlink.com 1.10,2013-01-18 08:53:00,
2013-01-18 04:08:00,22.5,12.0,30.17,NW,311,2.0,3.0,64,0.00,,,0.00,weatherlink.com 1.10,2013-01-18 09:08:00,
2013-01-18 04:23:00,22.5,12.0,30.17,East,95,0.0,3.0,64,0.00,,,0.00,weatherlink.com 1.10,2013-01-18 09:23:00,
2013-01-18 04:38:00,22.4,11.0,30.18,NW,322,0.0,5.0,62,0.00,,,0.00,weatherlink.com 1.10,2013-01-18 09:38:00,
2013-01-18 04:53:00,22.3,10.0,30.19,ENE,61,0.0,4.0,60,0.00,,,0.00,weatherlink.com 1.10,2013-01-18 09:53:00,
2013-01-18 05:08:00,22.0,10.0,30.20,NW,326,0.0,3.0,60,0.00,,,0.00,weatherlink.com 1.10,2013-01-18 10:08:00,
2013-01-18 05:23:00,21.9,11.0,30.21,ENE,75,2.0,3.0,62,0.00,,,0.00,weatherlink.com 1.10,2013-01-18 10:23:00,
2013-01-18 05:38:00,21.6,10.0,30.23,SE,132,2.0,5.0,60,0.00,,,0.00,weatherlink.com 1.10,2013-01-18 10:38:00,
2013-01-18 05:53:00,21.4,9.0,30.24,NE,46,0.0,5.0,60,0.00,,,0.00,weatherlink.com 1.10,2013-01-18 10:53:00,
2013-01-18 06:08:00,21.2,9.0,30.25,SE,129,0.0,3.0,59,0.00,,,0.00,weatherlink.com 1.10,2013-01-18 11:08:00,
2013-01-18 06:23:00,20.9,9.0,30.26,ENE,77,0.0,5.0,59,0.00,,,0.00,weatherlink.com 1.10,2013-01-18 11:23:00,
2013-01-18 06:39:00,20.5,7.0,30.28,SE,139,0.0,5.0,57,0.00,,,0.00,weatherlink.com 1.10,2013-01-18 11:39:00,
2013-01-18 06:54:00,20.2,8.0,30.30,East,98,0.0,5.0,59,0.00,,,0.00,weatherlink.com 1.10,2013-01-18 11:54:00,
2013-01-18 07:09:00,19.7,6.0,30.31,ESE,105,0.0,3.0,56,0.00,,,0.00,weatherlink.com 1.10,2013-01-18 12:09:00,
2013-01-18 07:24:00,19.3,5.0,30.32,ENE,65,0.0,3.0,55,0.00,,,0.00,weatherlink.com 1.10,2013-01-18 12:24:00,
2013-01-18 07:39:00,18.9,5.0,30.33,NNE,30,0.0,1.0,56,0.00,,,0.00,weatherlink.com 1.10,2013-01-18 12:39:00,
2013-01-18 07:54:00,18.9,5.0,30.34,ENE,68,1.0,2.0,56,0.00,,,0.00,weatherlink.com 1.10,2013-01-18 12:54:00,
2013-01-18 08:09:00,18.5,5.0,30.35,East,82,0.0,1.0,56,0.00,,,0.00,weatherlink.com 1.10,2013-01-18 13:09:00,
2013-01-18 08:24:00,18.6,4.0,30.36,ENE,59,0.0,2.0,53,0.00,,,0.00,weatherlink.com 1.10,2013-01-18 13:24:00,
2013-01-18 08:39:00,19.2,4.0,30.37,ESE,122,0.0,1.0,52,0.00,,,0.00,weatherlink.com 1.10,2013-01-18 13:39:00,
2013-01-18 08:54:00,20.0,4.0,30.38,East,99,1.0,1.0,50,0.00,,,0.00,weatherlink.com 1.10,2013-01-18 13:54:00,
2013-01-18 09:09:00,22.2,5.0,30.39,ENE,74,0.0,2.0,47,0.00,,,0.00,weatherlink.com 1.10,2013-01-18 14:09:00,
2013-01-18 09:24:00,23.2,5.0,30.41,ESE,107,0.0,3.0,45,0.00,,,0.00,weatherlink.com 1.10,2013-01-18 14:24:00,
2013-01-18 09:39:00,24.4,5.0,30.41,NNE,33,0.0,3.0,43,0.00,,,0.00,weatherlink.com 1.10,2013-01-18 14:39:00,
2013-01-18 09:54:00,24.6,4.0,30.42,ENE,70,0.0,4.0,42,0.00,,,0.00,weatherlink.com 1.10,2013-01-18 14:54:00,
2013-01-18 10:09:00,25.2,4.0,30.43,WSW,249,0.0,2.0,41,0.00,,,0.00,weatherlink.com 1.10,2013-01-18 15:09:00,
2013-01-18 10:24:00,24.7,4.0,30.43,SSW,205,0.0,6.0,41,0.00,,,0.00,weatherlink.com 1.10,2013-01-18 15:24:00,
2013-01-18 10:39:00,25.7,4.0,30.43,WSW,249,0.0,2.0,39,0.00,,,0.00,weatherlink.com 1.10,2013-01-18 15:39:00,
2013-01-18 10:54:00,25.5,4.0,30.42,NNE,19,0.0,2.0,39,0.00,,,0.00,weatherlink.com 1.10,2013-01-18 15:54:00,
2013-01-18 11:09:00,26.1,5.0,30.42,East,86,1.0,3.0,41,0.00,,,0.00,weatherlink.com 1.10,2013-01-18 16:09:00,
2013-01-18 11:24:00,26.2,5.0,30.41,NNW,330,1.0,6.0,40,0.00,,,0.00,weatherlink.com 1.10,2013-01-18 16:24:00,
2013-01-18 11:39:00,26.2,6.0,30.41,SE,134,4.0,8.0,42,0.00,,,0.00,weatherlink.com 1.10,2013-01-18 16:39:00,
2013-01-18 11:54:00,26.5,5.0,30.40,SSE,153,0.0,5.0,40,0.00,,,0.00,weatherlink.com 1.10,2013-01-18 16:54:00,
2013-01-18 12:09:00,26.3,6.0,30.41,WNW,298,0.0,8.0,42,0.00,,,0.00,weatherlink.com 1.10,2013-01-18 17:09:00,
2013-01-18 12:24:00,26.7,5.0,30.41,NE,43,1.0,5.0,40,0.00,,,0.00,weatherlink.com 1.10,2013-01-18 17:24:00,
2013-01-18 12:39:00,26.6,5.0,30.41,SSW,208,1.0,4.0,40,0.00,,,0.00,weatherlink.com 1.10,2013-01-18 17:39:00,
2013-01-18 13:09:00,27.5,6.0,30.41,South,169,0.0,2.0,40,0.00,,,0.00,weatherlink.com 1.10,2013-01-18 18:09:00,
2013-01-18 13:24:00,27.4,6.0,30.42,NE,54,1.0,5.0,41,0.00,,,0.00,weatherlink.com 1.10,2013-01-18 18:24:00,
2013-01-18 13:39:00,27.2,6.0,30.42,East,91,0.0,7.0,40,0.00,,,0.00,weatherlink.com 1.10,2013-01-18 18:39:00,
2013-01-18 13:54:00,27.1,7.0,30.42,WSW,251,0.0,3.0,42,0.00,,,0.00,weatherlink.com 1.10,2013-01-18 18:54:00,
2013-01-18 14:10:00,27.4,7.0,30.42,SSW,203,0.0,2.0,43,0.00,,,0.00,weatherlink.com 1.10,2013-01-18 19:10:00,
2013-01-18 14:24:00,27.4,7.0,30.42,ESE,120,0.0,4.0,43,0.00,,,0.00,weatherlink.com 1.10,2013-01-18 19:24:00,
2013-01-18 14:40:00,27.4,7.0,30.41,ENE,75,1.0,3.0,43,0.00,,,0.00,weatherlink.com 1.10,2013-01-18 19:40:00,
2013-01-18 14:55:00,27.4,7.0,30.41,SSE,166,0.0,4.0,43,0.00,,,0.00,weatherlink.com 1.10,2013-01-18 19:55:00,
2013-01-18 15:10:00,27.3,7.0,30.42,East,94,0.0,3.0,43,0.00,,,0.00,weatherlink.com 1.10,2013-01-18 20:10:00,
2013-01-18 15:25:00,27.1,6.0,30.41,SSW,196,0.0,1.0,41,0.00,,,0.00,weatherlink.com 1.10,2013-01-18 20:25:00,
2013-01-18 15:40:00,26.9,7.0,30.42,WSW,249,0.0,3.0,43,0.00,,,0.00,weatherlink.com 1.10,2013-01-18 20:40:00,
2013-01-18 15:55:00,26.9,7.0,30.42,SE,136,0.0,2.0,43,0.00,,,0.00,weatherlink.com 1.10,2013-01-18 20:55:00,
2013-01-18 16:10:00,26.3,8.0,30.42,ESE,119,0.0,1.0,45,0.00,,,0.00,weatherlink.com 1.10,2013-01-18 21:10:00,
2013-01-18 16:25:00,25.3,6.0,30.41,SE,128,0.0,1.0,44,0.00,,,0.00,weatherlink.com 1.10,2013-01-18 21:25:00,
2013-01-18 16:40:00,24.3,7.0,30.42,SSE,150,0.0,0.0,48,0.00,,,0.00,weatherlink.com 1.10,2013-01-18 21:40:00,
2013-01-18 16:55:00,23.6,8.0,30.42,SSW,210,0.0,1.0,51,0.00,,,0.00,weatherlink.com 1.10,2013-01-18 21:55:00,
2013-01-18 17:10:00,22.5,9.0,30.42,SSW,210,0.0,0.0,57,0.00,,,0.00,weatherlink.com 1.10,2013-01-18 22:10:00,
2013-01-18 17:25:00,22.0,8.0,30.43,WSW,238,0.0,1.0,56,0.00,,,0.00,weatherlink.com 1.10,2013-01-18 22:25:00,
2013-01-18 17:40:00,21.4,9.0,30.43,WSW,238,0.0,0.0,58,0.00,,,0.00,weatherlink.com 1.10,2013-01-18 22:40:00,
2013-01-18 17:55:00,20.6,9.0,30.43,WSW,238,0.0,0.0,61,0.00,,,0.00,weatherlink.com 1.10,2013-01-18 22:55:00,
2013-01-18 18:10:00,19.9,9.0,30.43,WSW,238,0.0,0.0,63,0.00,,,0.00,weatherlink.com 1.10,2013-01-18 23:10:00,
2013-01-18 18:25:00,19.8,9.0,30.43,WSW,238,0.0,0.0,64,0.00,,,0.00,weatherlink.com 1.10,2013-01-18 23:25:00,
2013-01-18 18:40:00,19.6,9.0,30.44,WSW,238,0.0,0.0,64,0.00,,,0.00,weatherlink.com 1.10,2013-01-18 23:40:00,
2013-01-18 18:55:00,19.3,9.0,30.44,WSW,238,0.0,0.0,65,0.00,,,0.00,weatherlink.com 1.10,2013-01-18 23:55:00,
2013-01-18 19:10:00,19.2,10.0,30.43,WSW,238,0.0,0.0,68,0.00,,,0.00,weatherlink.com 1.10,2013-01-19 00:10:00,
2013-01-18 19:25:00,18.7,10.0,30.42,SW,236,0.0,1.0,70,0.00,,,0.00,weatherlink.com 1.10,2013-01-19 00:25:00,
2013-01-18 19:40:00,18.9,10.0,30.42,West,273,0.0,1.0,68,0.00,,,0.00,weatherlink.com 1.10,2013-01-19 00:40:00,
2013-01-18 19:55:00,18.9,10.0,30.42,West,259,0.0,0.0,68,0.00,,,0.00,weatherlink.com 1.10,2013-01-19 00:55:00,
2013-01-18 20:10:00,18.3,10.0,30.43,West,259,0.0,0.0,71,0.00,,,0.00,weatherlink.com 1.10,2013-01-19 01:10:00,
2013-01-18 20:25:00,17.7,11.0,30.43,West,259,0.0,0.0,74,0.00,,,0.00,weatherlink.com 1.10,2013-01-19 01:25:00,
2013-01-18 20:40:00,18.0,10.0,30.42,SW,219,2.0,2.0,70,0.00,,,0.00,weatherlink.com 1.10,2013-01-19 01:40:00,
2013-01-18 20:55:00,19.3,10.0,30.41,SW,219,0.0,1.0,66,0.00,,,0.00,weatherlink.com 1.10,2013-01-19 01:55:00,
2013-01-18 21:10:00,19.6,10.0,30.40,East,99,0.0,1.0,65,0.00,,,0.00,weatherlink.com 1.10,2013-01-19 02:10:00,
2013-01-18 21:25:00,19.4,10.0,30.41,ESE,117,0.0,0.0,66,0.00,,,0.00,weatherlink.com 1.10,2013-01-19 02:25:00,
2013-01-18 21:40:00,19.3,10.0,30.41,West,260,0.0,2.0,66,0.00,,,0.00,weatherlink.com 1.10,2013-01-19 02:40:00,
2013-01-18 21:55:00,19.4,10.0,30.41,West,264,0.0,0.0,66,0.00,,,0.00,weatherlink.com 1.10,2013-01-19 02:55:00,
2013-01-18 22:10:00,19.1,10.0,30.40,SSW,195,0.0,1.0,68,0.00,,,0.00,weatherlink.com 1.10,2013-01-19 03:10:00,
2013-01-18 22:25:00,19.4,10.0,30.39,SW,214,0.0,1.0,66,0.00,,,0.00,weatherlink.com 1.10,2013-01-19 03:25:00,
2013-01-18 22:40:00,20.3,10.0,30.38,SSW,211,0.0,2.0,64,0.00,,,0.00,weatherlink.com 1.10,2013-01-19 03:40:00,
2013-01-18 22:55:00,21.1,10.0,30.38,SW,215,0.0,2.0,63,0.00,,,0.00,weatherlink.com 1.10,2013-01-19 03:55:00,
2013-01-18 23:10:00,21.5,10.0,30.36,SSW,205,0.0,4.0,62,0.00,,,0.00,weatherlink.com 1.10,2013-01-19 04:10:00,
2013-01-18 23:25:00,21.6,10.0,30.36,West,262,0.0,3.0,61,0.00,,,0.00,weatherlink.com 1.10,2013-01-19 04:25:00,
2013-01-18 23:40:00,21.4,10.0,30.35,SSW,200,0.0,3.0,62,0.00,,,0.00,weatherlink.com 1.10,2013-01-19 04:40:00,
2013-01-18 23:55:00,21.6,11.0,30.36,SSW,210,0.0,2.0,64,0.00,,,0.00,weatherlink.com 1.10,2013-01-19 04:55:00,